sensor_id;sensor_type;location;lat;lon;timestamp;pressure;altitude;pressure_sealevel;temperature;humidity
25080;BME280;13071;48.868;9.996;2023-04-24T00:02:11;95516.31;;;9.98;100.00
25080;BME280;13071;48.868;9.996;2023-04-24T00:04:38;95513.94;;;9.97;100.00
25080;BME280;13071;48.868;9.996;2023-04-24T00:07:06;95510.84;;;9.95;100.00
25080;BME280;13071;48.868;9.996;2023-04-24T00:09:32;95508.53;;;9.97;100.00
25080;BME280;13071;48.868;9.996;2023-04-24T00:11:59;95518.66;;;10.00;100.00
25080;BME280;13071;48.868;9.996;2023-04-24T00:14:29;95521.97;;;9.93;100.00
25080;BME280;13071;48.868;9.996;2023-04-24T00:16:56;95526.25;;;9.94;100.00
25080;BME280;13071;48.868;9.996;2023-04-24T00:19:23;95527.47;;;9.97;100.00
25080;BME280;13071;48.868;9.996;2023-04-24T00:21:50;95517.81;;;9.96;100.00
25080;BME280;13071;48.868;9.996;2023-04-24T00:24:16;95525.91;;;9.96;100.00
25080;BME280;13071;48.868;9.996;2023-04-24T00:26:43;95527.38;;;9.93;100.00
25080;BME280;13071;48.868;9.996;2023-04-24T00:29:10;95527.72;;;9.92;100.00
25080;BME280;13071;48.868;9.996;2023-04-24T00:31:38;95528.09;;;9.90;100.00
25080;BME280;13071;48.868;9.996;2023-04-24T00:34:04;95534.97;;;9.88;100.00
25080;BME280;13071;48.868;9.996;2023-04-24T00:36:31;95519.81;;;9.83;100.00
25080;BME280;13071;48.868;9.996;2023-04-24T00:38:58;95522.44;;;9.80;100.00
25080;BME280;13071;48.868;9.996;2023-04-24T00:41:25;95516.88;;;9.73;100.00
25080;BME280;13071;48.868;9.996;2023-04-24T00:43:51;95516.78;;;9.69;100.00
25080;BME280;13071;48.868;9.996;2023-04-24T00:46:18;95519.94;;;9.71;100.00
25080;BME280;13071;48.868;9.996;2023-04-24T00:48:47;95522.53;;;9.68;100.00
25080;BME280;13071;48.868;9.996;2023-04-24T00:51:13;95517.50;;;9.66;100.00
25080;BME280;13071;48.868;9.996;2023-04-24T00:53:41;95518.28;;;9.67;100.00
25080;BME280;13071;48.868;9.996;2023-04-24T00:56:07;95524.03;;;9.65;100.00
25080;BME280;13071;48.868;9.996;2023-04-24T00:58:34;95520.63;;;9.68;100.00
25080;BME280;13071;48.868;9.996;2023-04-24T01:01:01;95528.84;;;9.72;100.00
25080;BME280;13071;48.868;9.996;2023-04-24T01:03:33;95517.66;;;9.73;100.00
25080;BME280;13071;48.868;9.996;2023-04-24T01:06:04;95527.69;;;9.73;100.00
25080;BME280;13071;48.868;9.996;2023-04-24T01:08:31;95523.06;;;9.73;100.00
25080;BME280;13071;48.868;9.996;2023-04-24T01:10:59;95527.84;;;9.80;100.00
25080;BME280;13071;48.868;9.996;2023-04-24T01:13:27;95516.44;;;9.71;100.00
25080;BME280;13071;48.868;9.996;2023-04-24T01:15:54;95509.81;;;9.68;100.00
25080;BME280;13071;48.868;9.996;2023-04-24T01:18:20;95507.97;;;9.72;100.00
25080;BME280;13071;48.868;9.996;2023-04-24T01:20:49;95506.44;;;9.71;100.00
25080;BME280;13071;48.868;9.996;2023-04-24T01:23:19;95507.72;;;9.77;100.00
25080;BME280;13071;48.868;9.996;2023-04-24T01:25:46;95505.78;;;9.78;100.00
25080;BME280;13071;48.868;9.996;2023-04-24T01:28:13;95505.91;;;9.81;100.00
25080;BME280;13071;48.868;9.996;2023-04-24T01:30:40;95508.66;;;9.85;100.00
25080;BME280;13071;48.868;9.996;2023-04-24T01:33:07;95499.84;;;9.88;100.00
25080;BME280;13071;48.868;9.996;2023-04-24T01:35:34;95501.88;;;9.91;100.00
25080;BME280;13071;48.868;9.996;2023-04-24T01:38:01;95493.25;;;9.85;100.00
25080;BME280;13071;48.868;9.996;2023-04-24T01:40:29;95492.59;;;9.92;100.00
25080;BME280;13071;48.868;9.996;2023-04-24T01:42:57;95491.06;;;9.91;100.00
25080;BME280;13071;48.868;9.996;2023-04-24T01:45:24;95490.00;;;9.95;100.00
25080;BME280;13071;48.868;9.996;2023-04-24T01:47:51;95494.53;;;9.91;100.00
25080;BME280;13071;48.868;9.996;2023-04-24T01:50:18;95491.84;;;9.91;100.00
25080;BME280;13071;48.868;9.996;2023-04-24T01:52:45;95491.41;;;9.89;100.00
25080;BME280;13071;48.868;9.996;2023-04-24T01:55:11;95486.72;;;9.86;100.00
25080;BME280;13071;48.868;9.996;2023-04-24T01:57:39;95494.03;;;9.86;100.00
25080;BME280;13071;48.868;9.996;2023-04-24T02:00:07;95484.00;;;9.86;100.00
25080;BME280;13071;48.868;9.996;2023-04-24T02:02:34;95482.72;;;9.80;100.00
25080;BME280;13071;48.868;9.996;2023-04-24T02:05:00;95472.25;;;9.79;100.00
25080;BME280;13071;48.868;9.996;2023-04-24T02:07:28;95478.88;;;9.81;100.00
25080;BME280;13071;48.868;9.996;2023-04-24T02:09:54;95480.53;;;9.86;100.00
25080;BME280;13071;48.868;9.996;2023-04-24T02:12:21;95468.13;;;9.85;100.00
25080;BME280;13071;48.868;9.996;2023-04-24T02:14:49;95469.78;;;9.89;100.00
25080;BME280;13071;48.868;9.996;2023-04-24T02:17:16;95474.47;;;9.92;100.00
25080;BME280;13071;48.868;9.996;2023-04-24T02:19:42;95459.81;;;9.93;100.00
25080;BME280;13071;48.868;9.996;2023-04-24T02:22:09;95464.09;;;9.94;99.71
25080;BME280;13071;48.868;9.996;2023-04-24T02:24:36;95473.00;;;9.95;98.83
25080;BME280;13071;48.868;9.996;2023-04-24T02:27:03;95466.81;;;9.94;98.73
25080;BME280;13071;48.868;9.996;2023-04-24T02:29:29;95470.28;;;9.95;98.97
25080;BME280;13071;48.868;9.996;2023-04-24T02:31:57;95460.97;;;9.92;98.11
25080;BME280;13071;48.868;9.996;2023-04-24T02:34:24;95469.06;;;9.92;97.86
25080;BME280;13071;48.868;9.996;2023-04-24T02:36:51;95460.53;;;9.90;97.86
25080;BME280;13071;48.868;9.996;2023-04-24T02:39:19;95466.56;;;9.84;97.98
25080;BME280;13071;48.868;9.996;2023-04-24T02:41:45;95473.88;;;9.83;97.60
25080;BME280;13071;48.868;9.996;2023-04-24T02:44:12;95469.09;;;9.77;97.11
25080;BME280;13071;48.868;9.996;2023-04-24T02:46:38;95466.59;;;9.68;97.97
25080;BME280;13071;48.868;9.996;2023-04-24T02:49:07;95461.47;;;9.63;98.53
25080;BME280;13071;48.868;9.996;2023-04-24T02:51:34;95462.88;;;9.57;99.22
25080;BME280;13071;48.868;9.996;2023-04-24T02:54:03;95472.53;;;9.58;99.16
25080;BME280;13071;48.868;9.996;2023-04-24T02:56:30;95474.03;;;9.56;99.75
25080;BME280;13071;48.868;9.996;2023-04-24T02:58:56;95468.47;;;9.48;99.64
25080;BME280;13071;48.868;9.996;2023-04-24T03:01:23;95476.13;;;9.46;100.00
25080;BME280;13071;48.868;9.996;2023-04-24T03:03:50;95476.47;;;9.45;100.00
25080;BME280;13071;48.868;9.996;2023-04-24T03:06:18;95482.22;;;9.43;100.00
25080;BME280;13071;48.868;9.996;2023-04-24T03:08:46;95469.09;;;9.42;100.00
25080;BME280;13071;48.868;9.996;2023-04-24T03:11:12;95470.75;;;9.46;100.00
25080;BME280;13071;48.868;9.996;2023-04-24T03:13:39;95463.78;;;9.45;100.00
25080;BME280;13071;48.868;9.996;2023-04-24T03:16:05;95469.84;;;9.42;100.00
25080;BME280;13071;48.868;9.996;2023-04-24T03:18:32;95464.03;;;9.40;100.00
25080;BME280;13071;48.868;9.996;2023-04-24T03:20:59;95465.16;;;9.39;100.00
25080;BME280;13071;48.868;9.996;2023-04-24T03:23:27;95460.22;;;9.41;100.00
25080;BME280;13071;48.868;9.996;2023-04-24T03:25:53;95463.59;;;9.38;100.00
25080;BME280;13071;48.868;9.996;2023-04-24T03:28:20;95462.13;;;9.41;100.00
25080;BME280;13071;48.868;9.996;2023-04-24T03:30:46;95464.28;;;9.35;100.00
25080;BME280;13071;48.868;9.996;2023-04-24T03:33:13;95462.72;;;9.34;100.00
25080;BME280;13071;48.868;9.996;2023-04-24T03:35:40;95471.34;;;9.24;100.00
25080;BME280;13071;48.868;9.996;2023-04-24T03:38:06;95472.59;;;9.27;100.00
25080;BME280;13071;48.868;9.996;2023-04-24T03:40:34;95477.97;;;9.27;100.00
25080;BME280;13071;48.868;9.996;2023-04-24T03:43:01;95476.94;;;9.31;100.00
25080;BME280;13071;48.868;9.996;2023-04-24T03:45:27;95478.84;;;9.31;100.00
25080;BME280;13071;48.868;9.996;2023-04-24T03:47:54;95481.97;;;9.33;100.00
25080;BME280;13071;48.868;9.996;2023-04-24T03:50:21;95487.09;;;9.38;100.00
25080;BME280;13071;48.868;9.996;2023-04-24T03:52:47;95478.22;;;9.37;100.00
25080;BME280;13071;48.868;9.996;2023-04-24T03:55:14;95479.91;;;9.42;100.00
25080;BME280;13071;48.868;9.996;2023-04-24T03:57:42;95478.84;;;9.46;100.00
25080;BME280;13071;48.868;9.996;2023-04-24T04:00:09;95485.03;;;9.47;100.00
25080;BME280;13071;48.868;9.996;2023-04-24T04:02:36;95480.50;;;9.51;100.00
25080;BME280;13071;48.868;9.996;2023-04-24T04:05:03;95478.13;;;9.49;100.00
25080;BME280;13071;48.868;9.996;2023-04-24T04:07:30;95481.09;;;9.44;100.00
25080;BME280;13071;48.868;9.996;2023-04-24T04:09:56;95481.09;;;9.44;100.00
25080;BME280;13071;48.868;9.996;2023-04-24T04:12:23;95474.97;;;9.47;100.00
25080;BME280;13071;48.868;9.996;2023-04-24T04:14:51;95476.94;;;9.47;100.00
25080;BME280;13071;48.868;9.996;2023-04-24T04:17:18;95483.00;;;9.44;100.00
25080;BME280;13071;48.868;9.996;2023-04-24T04:19:44;95479.63;;;9.47;100.00
25080;BME280;13071;48.868;9.996;2023-04-24T04:22:11;95488.16;;;9.49;100.00
25080;BME280;13071;48.868;9.996;2023-04-24T04:24:37;95490.16;;;9.52;100.00
25080;BME280;13071;48.868;9.996;2023-04-24T04:27:06;95495.19;;;9.53;100.00
25080;BME280;13071;48.868;9.996;2023-04-24T04:29:33;95493.63;;;9.52;100.00
25080;BME280;13071;48.868;9.996;2023-04-24T04:32:01;95499.13;;;9.56;100.00
25080;BME280;13071;48.868;9.996;2023-04-24T04:34:28;95497.22;;;9.57;100.00
25080;BME280;13071;48.868;9.996;2023-04-24T04:36:55;95493.28;;;9.54;100.00
25080;BME280;13071;48.868;9.996;2023-04-24T04:39:21;95494.59;;;9.60;100.00
25080;BME280;13071;48.868;9.996;2023-04-24T04:41:48;95492.50;;;9.53;100.00
25080;BME280;13071;48.868;9.996;2023-04-24T04:44:15;95496.44;;;9.56;100.00
25080;BME280;13071;48.868;9.996;2023-04-24T04:46:42;95484.75;;;9.52;100.00
25080;BME280;13071;48.868;9.996;2023-04-24T04:49:10;95489.72;;;9.50;100.00
25080;BME280;13071;48.868;9.996;2023-04-24T04:51:37;95487.88;;;9.54;100.00
25080;BME280;13071;48.868;9.996;2023-04-24T04:54:03;95498.06;;;9.61;100.00
25080;BME280;13071;48.868;9.996;2023-04-24T04:56:30;95497.03;;;9.65;100.00
25080;BME280;13071;48.868;9.996;2023-04-24T04:58:56;95500.50;;;9.66;100.00
25080;BME280;13071;48.868;9.996;2023-04-24T05:01:24;95499.53;;;9.74;100.00
25080;BME280;13071;48.868;9.996;2023-04-24T05:03:53;95497.88;;;9.69;100.00
25080;BME280;13071;48.868;9.996;2023-04-24T05:06:21;95492.66;;;9.76;100.00
25080;BME280;13071;48.868;9.996;2023-04-24T05:08:47;95498.59;;;9.66;100.00
25080;BME280;13071;48.868;9.996;2023-04-24T05:11:14;95505.47;;;9.64;100.00
25080;BME280;13071;48.868;9.996;2023-04-24T05:13:41;95512.00;;;9.63;100.00
25080;BME280;13071;48.868;9.996;2023-04-24T05:16:07;95516.88;;;9.57;100.00
25080;BME280;13071;48.868;9.996;2023-04-24T05:18:34;95526.81;;;9.53;100.00
25080;BME280;13071;48.868;9.996;2023-04-24T05:21:00;95537.47;;;9.46;100.00
25080;BME280;13071;48.868;9.996;2023-04-24T05:23:28;95542.34;;;9.56;100.00
25080;BME280;13071;48.868;9.996;2023-04-24T05:25:56;95553.03;;;9.84;100.00
25080;BME280;13071;48.868;9.996;2023-04-24T05:28:22;95561.41;;;9.94;99.50
25080;BME280;13071;48.868;9.996;2023-04-24T05:30:53;95592.19;;;9.90;99.67
25080;BME280;13071;48.868;9.996;2023-04-24T05:33:20;95596.22;;;8.78;95.33
25080;BME280;13071;48.868;9.996;2023-04-24T05:35:47;95597.47;;;8.68;96.26
25080;BME280;13071;48.868;9.996;2023-04-24T05:38:13;95600.22;;;8.84;96.20
25080;BME280;13071;48.868;9.996;2023-04-24T05:40:44;95608.06;;;8.89;94.01
25080;BME280;13071;48.868;9.996;2023-04-24T05:43:10;95608.75;;;8.86;94.68
25080;BME280;13071;48.868;9.996;2023-04-24T05:45:37;95611.59;;;8.77;94.19
25080;BME280;13071;48.868;9.996;2023-04-24T05:48:05;95607.41;;;8.80;94.75
25080;BME280;13071;48.868;9.996;2023-04-24T05:50:31;95615.81;;;8.90;95.13
25080;BME280;13071;48.868;9.996;2023-04-24T05:52:58;95619.75;;;8.93;95.83
25080;BME280;13071;48.868;9.996;2023-04-24T05:55:25;95616.53;;;9.03;97.21
25080;BME280;13071;48.868;9.996;2023-04-24T05:57:53;95623.19;;;9.05;98.14
25080;BME280;13071;48.868;9.996;2023-04-24T06:00:20;95613.56;;;9.20;98.89
25080;BME280;13071;48.868;9.996;2023-04-24T06:02:47;95607.44;;;9.23;99.81
25080;BME280;13071;48.868;9.996;2023-04-24T06:05:13;95614.44;;;9.24;100.00
25080;BME280;13071;48.868;9.996;2023-04-24T06:07:40;95610.28;;;9.58;100.00
25080;BME280;13071;48.868;9.996;2023-04-24T06:10:08;95626.44;;;9.70;100.00
25080;BME280;13071;48.868;9.996;2023-04-24T06:12:34;95621.44;;;9.72;100.00
25080;BME280;13071;48.868;9.996;2023-04-24T06:15:03;95634.53;;;9.70;100.00
25080;BME280;13071;48.868;9.996;2023-04-24T06:17:30;95638.19;;;9.46;100.00
25080;BME280;13071;48.868;9.996;2023-04-24T06:19:57;95641.41;;;9.52;100.00
25080;BME280;13071;48.868;9.996;2023-04-24T06:22:24;95640.19;;;9.65;100.00
25080;BME280;13071;48.868;9.996;2023-04-24T06:24:50;95634.72;;;9.62;100.00
25080;BME280;13071;48.868;9.996;2023-04-24T06:27:17;95633.50;;;9.75;100.00
25080;BME280;13071;48.868;9.996;2023-04-24T06:29:43;95641.53;;;9.71;100.00
25080;BME280;13071;48.868;9.996;2023-04-24T06:32:11;95639.94;;;9.86;99.72
25080;BME280;13071;48.868;9.996;2023-04-24T06:34:38;95649.00;;;9.93;97.54
25080;BME280;13071;48.868;9.996;2023-04-24T06:37:04;95654.41;;;9.78;98.34
25080;BME280;13071;48.868;9.996;2023-04-24T06:39:31;95662.94;;;9.64;98.96
25080;BME280;13071;48.868;9.996;2023-04-24T06:41:58;95662.22;;;9.67;99.25
25080;BME280;13071;48.868;9.996;2023-04-24T06:44:25;95669.41;;;9.75;99.40
25080;BME280;13071;48.868;9.996;2023-04-24T06:46:52;95651.97;;;9.73;97.59
25080;BME280;13071;48.868;9.996;2023-04-24T06:49:20;95657.47;;;9.76;97.90
25080;BME280;13071;48.868;9.996;2023-04-24T06:51:46;95653.44;;;9.70;98.56
25080;BME280;13071;48.868;9.996;2023-04-24T06:54:13;95660.53;;;9.90;97.94
25080;BME280;13071;48.868;9.996;2023-04-24T06:56:40;95663.38;;;9.97;96.36
25080;BME280;13071;48.868;9.996;2023-04-24T06:59:06;95664.78;;;10.07;95.47
25080;BME280;13071;48.868;9.996;2023-04-24T07:01:33;95655.19;;;10.10;96.42
25080;BME280;13071;48.868;9.996;2023-04-24T07:03:59;95653.84;;;10.16;92.38
25080;BME280;13071;48.868;9.996;2023-04-24T07:06:27;95657.41;;;10.35;92.40
25080;BME280;13071;48.868;9.996;2023-04-24T07:08:55;95656.31;;;10.56;94.20
25080;BME280;13071;48.868;9.996;2023-04-24T07:11:23;95654.88;;;10.62;93.19
25080;BME280;13071;48.868;9.996;2023-04-24T07:13:50;95650.75;;;10.68;92.25
25080;BME280;13071;48.868;9.996;2023-04-24T07:16:16;95651.66;;;10.56;89.53
25080;BME280;13071;48.868;9.996;2023-04-24T07:18:43;95641.78;;;10.29;90.27
25080;BME280;13071;48.868;9.996;2023-04-24T07:21:09;95645.03;;;10.54;89.87
25080;BME280;13071;48.868;9.996;2023-04-24T07:23:37;95645.06;;;10.73;91.29
25080;BME280;13071;48.868;9.996;2023-04-24T07:26:06;95641.25;;;10.74;89.07
25080;BME280;13071;48.868;9.996;2023-04-24T07:28:33;95644.53;;;10.83;88.12
25080;BME280;13071;48.868;9.996;2023-04-24T07:30:59;95640.41;;;11.08;90.83
25080;BME280;13071;48.868;9.996;2023-04-24T07:33:26;95643.09;;;11.47;91.28
25080;BME280;13071;48.868;9.996;2023-04-24T07:35:52;95641.94;;;11.48;88.55
25080;BME280;13071;48.868;9.996;2023-04-24T07:38:19;95637.81;;;11.54;84.29
25080;BME280;13071;48.868;9.996;2023-04-24T07:40:49;95641.44;;;11.84;86.38
25080;BME280;13071;48.868;9.996;2023-04-24T07:43:15;95654.31;;;11.68;81.60
25080;BME280;13071;48.868;9.996;2023-04-24T07:45:42;95646.16;;;11.87;81.49
25080;BME280;13071;48.868;9.996;2023-04-24T07:48:08;95644.78;;;11.97;79.96
25080;BME280;13071;48.868;9.996;2023-04-24T07:50:35;95650.59;;;11.99;80.60
25080;BME280;13071;48.868;9.996;2023-04-24T07:53:02;95658.16;;;11.86;80.06
25080;BME280;13071;48.868;9.996;2023-04-24T07:55:29;95658.47;;;11.62;80.26
25080;BME280;13071;48.868;9.996;2023-04-24T07:57:56;95660.03;;;11.63;82.02
25080;BME280;13071;48.868;9.996;2023-04-24T08:00:23;95662.31;;;11.61;81.51
25080;BME280;13071;48.868;9.996;2023-04-24T08:02:50;95661.75;;;11.52;81.48
25080;BME280;13071;48.868;9.996;2023-04-24T08:05:16;95666.53;;;11.58;83.00
25080;BME280;13071;48.868;9.996;2023-04-24T08:07:43;95666.81;;;11.53;82.34
25080;BME280;13071;48.868;9.996;2023-04-24T08:10:11;95671.19;;;11.39;82.30
25080;BME280;13071;48.868;9.996;2023-04-24T08:12:38;95664.22;;;11.80;80.75
25080;BME280;13071;48.868;9.996;2023-04-24T08:15:08;95667.66;;;11.77;81.54
25080;BME280;13071;48.868;9.996;2023-04-24T08:17:35;95663.44;;;11.79;80.70
25080;BME280;13071;48.868;9.996;2023-04-24T08:20:01;95663.75;;;11.74;80.40
25080;BME280;13071;48.868;9.996;2023-04-24T08:22:30;95664.72;;;11.66;82.17
25080;BME280;13071;48.868;9.996;2023-04-24T08:24:58;95680.50;;;11.41;83.50
25080;BME280;13071;48.868;9.996;2023-04-24T08:27:25;95679.72;;;10.83;86.88
25080;BME280;13071;48.868;9.996;2023-04-24T08:29:53;95685.47;;;10.81;88.59
25080;BME280;13071;48.868;9.996;2023-04-24T08:32:21;95692.44;;;10.82;87.05
25080;BME280;13071;48.868;9.996;2023-04-24T08:34:47;95700.41;;;10.25;87.12
25080;BME280;13071;48.868;9.996;2023-04-24T08:37:14;95702.19;;;10.52;88.71
25080;BME280;13071;48.868;9.996;2023-04-24T08:39:41;95690.78;;;10.43;86.09
25080;BME280;13071;48.868;9.996;2023-04-24T08:42:08;95711.97;;;10.10;86.01
25080;BME280;13071;48.868;9.996;2023-04-24T08:44:35;95706.31;;;10.15;88.07
25080;BME280;13071;48.868;9.996;2023-04-24T08:47:02;95714.88;;;10.32;89.08
25080;BME280;13071;48.868;9.996;2023-04-24T08:49:30;95714.06;;;10.48;88.81
25080;BME280;13071;48.868;9.996;2023-04-24T08:51:57;95704.56;;;10.54;89.79
25080;BME280;13071;48.868;9.996;2023-04-24T08:54:25;95713.19;;;10.59;89.51
25080;BME280;13071;48.868;9.996;2023-04-24T08:56:53;95718.94;;;10.58;87.98
25080;BME280;13071;48.868;9.996;2023-04-24T08:59:21;95708.63;;;10.79;88.17
25080;BME280;13071;48.868;9.996;2023-04-24T09:01:49;95717.41;;;10.92;88.99
25080;BME280;13071;48.868;9.996;2023-04-24T09:04:17;95705.03;;;11.10;88.63
25080;BME280;13071;48.868;9.996;2023-04-24T09:06:48;95715.50;;;11.11;87.93
25080;BME280;13071;48.868;9.996;2023-04-24T09:09:16;95727.84;;;11.09;87.50
25080;BME280;13071;48.868;9.996;2023-04-24T09:11:43;95720.06;;;11.07;87.49
25080;BME280;13071;48.868;9.996;2023-04-24T09:14:10;95717.78;;;11.09;88.48
25080;BME280;13071;48.868;9.996;2023-04-24T09:16:37;95718.03;;;10.85;85.48
25080;BME280;13071;48.868;9.996;2023-04-24T09:19:03;95714.06;;;10.98;82.91
25080;BME280;13071;48.868;9.996;2023-04-24T09:21:31;95713.22;;;10.94;80.88
25080;BME280;13071;48.868;9.996;2023-04-24T09:24:00;95724.72;;;10.91;77.03
25080;BME280;13071;48.868;9.996;2023-04-24T09:26:29;95726.16;;;10.85;73.97
25080;BME280;13071;48.868;9.996;2023-04-24T09:28:58;95720.53;;;10.94;75.01
25080;BME280;13071;48.868;9.996;2023-04-24T09:31:27;95726.81;;;10.98;73.08
25080;BME280;13071;48.868;9.996;2023-04-24T09:33:55;95730.09;;;11.07;73.66
25080;BME280;13071;48.868;9.996;2023-04-24T09:36:29;95730.69;;;11.35;74.46
25080;BME280;13071;48.868;9.996;2023-04-24T09:39:00;95731.69;;;11.27;72.59
25080;BME280;13071;48.868;9.996;2023-04-24T09:41:27;95739.25;;;11.56;76.10
25080;BME280;13071;48.868;9.996;2023-04-24T09:43:54;95735.06;;;11.78;76.49
25080;BME280;13071;48.868;9.996;2023-04-24T09:46:21;95734.63;;;11.76;76.47
25080;BME280;13071;48.868;9.996;2023-04-24T09:48:55;95735.16;;;12.04;76.17
25080;BME280;13071;48.868;9.996;2023-04-24T09:51:33;95736.22;;;11.77;72.13
25080;BME280;13071;48.868;9.996;2023-04-24T09:54:03;95742.63;;;11.88;73.32
25080;BME280;13071;48.868;9.996;2023-04-24T09:56:33;95739.41;;;11.44;71.95
25080;BME280;13071;48.868;9.996;2023-04-24T09:59:05;95745.97;;;11.24;72.29
25080;BME280;13071;48.868;9.996;2023-04-24T10:01:33;95750.88;;;11.18;71.38
25080;BME280;13071;48.868;9.996;2023-04-24T10:03:59;95753.63;;;11.03;70.13
25080;BME280;13071;48.868;9.996;2023-04-24T10:06:31;95755.84;;;11.16;70.96
25080;BME280;13071;48.868;9.996;2023-04-24T10:08:58;95752.22;;;11.28;71.70
25080;BME280;13071;48.868;9.996;2023-04-24T10:11:27;95749.53;;;11.47;69.80
25080;BME280;13071;48.868;9.996;2023-04-24T10:13:53;95762.34;;;11.50;69.73
25080;BME280;13071;48.868;9.996;2023-04-24T10:16:22;95765.06;;;11.50;69.41
25080;BME280;13071;48.868;9.996;2023-04-24T10:18:48;95773.63;;;11.52;70.41
25080;BME280;13071;48.868;9.996;2023-04-24T10:21:16;95767.66;;;11.43;70.72
25080;BME280;13071;48.868;9.996;2023-04-24T10:23:43;95776.16;;;11.26;70.33
25080;BME280;13071;48.868;9.996;2023-04-24T10:26:12;95779.19;;;11.40;69.32
25080;BME280;13071;48.868;9.996;2023-04-24T10:28:45;95793.09;;;11.39;71.23
25080;BME280;13071;48.868;9.996;2023-04-24T10:31:12;95797.19;;;11.13;71.22
25080;BME280;13071;48.868;9.996;2023-04-24T10:33:40;95809.00;;;10.90;70.44
25080;BME280;13071;48.868;9.996;2023-04-24T10:36:09;95804.03;;;10.76;70.64
25080;BME280;13071;48.868;9.996;2023-04-24T10:38:37;95803.53;;;10.70;71.08
25080;BME280;13071;48.868;9.996;2023-04-24T10:41:09;95807.53;;;10.76;71.32
25080;BME280;13071;48.868;9.996;2023-04-24T10:43:41;95801.50;;;10.83;71.84
25080;BME280;13071;48.868;9.996;2023-04-24T10:46:09;95806.50;;;11.16;70.53
25080;BME280;13071;48.868;9.996;2023-04-24T10:48:42;95808.16;;;11.20;70.40
25080;BME280;13071;48.868;9.996;2023-04-24T10:51:11;95797.66;;;11.35;70.98
25080;BME280;13071;48.868;9.996;2023-04-24T10:53:38;95800.13;;;11.78;70.42
25080;BME280;13071;48.868;9.996;2023-04-24T10:56:06;95795.03;;;11.96;70.85
25080;BME280;13071;48.868;9.996;2023-04-24T10:58:36;95796.03;;;12.07;70.11
25080;BME280;13071;48.868;9.996;2023-04-24T11:01:03;95799.09;;;12.05;68.35
25080;BME280;13071;48.868;9.996;2023-04-24T11:03:33;95805.34;;;11.87;67.66
25080;BME280;13071;48.868;9.996;2023-04-24T11:06:01;95809.13;;;11.82;68.40
25080;BME280;13071;48.868;9.996;2023-04-24T11:08:30;95810.56;;;11.60;66.34
25080;BME280;13071;48.868;9.996;2023-04-24T11:11:02;95811.47;;;11.30;67.80
25080;BME280;13071;48.868;9.996;2023-04-24T11:16:29;95821.56;;;11.67;67.47
25080;BME280;13071;48.868;9.996;2023-04-24T11:19:02;95827.69;;;11.64;67.44
25080;BME280;13071;48.868;9.996;2023-04-24T11:21:39;95813.81;;;11.85;66.15
25080;BME280;13071;48.868;9.996;2023-04-24T11:24:26;95814.28;;;12.10;67.45
25080;BME280;13071;48.868;9.996;2023-04-24T11:26:54;95808.13;;;12.32;65.93
25080;BME280;13071;48.868;9.996;2023-04-24T11:29:22;95805.44;;;12.32;64.70
25080;BME280;13071;48.868;9.996;2023-04-24T11:31:49;95816.13;;;11.83;63.91
25080;BME280;13071;48.868;9.996;2023-04-24T11:34:18;95814.91;;;11.65;63.04
25080;BME280;13071;48.868;9.996;2023-04-24T11:36:45;95825.69;;;11.61;64.87
25080;BME280;13071;48.868;9.996;2023-04-24T11:39:12;95831.72;;;11.36;65.50
25080;BME280;13071;48.868;9.996;2023-04-24T11:41:39;95827.03;;;11.52;64.72
25080;BME280;13071;48.868;9.996;2023-04-24T11:44:07;95832.66;;;11.43;63.76
25080;BME280;13071;48.868;9.996;2023-04-24T11:46:34;95826.13;;;11.44;63.69
25080;BME280;13071;48.868;9.996;2023-04-24T11:49:03;95844.00;;;11.14;65.26
25080;BME280;13071;48.868;9.996;2023-04-24T11:51:32;95830.50;;;11.33;66.85
25080;BME280;13071;48.868;9.996;2023-04-24T11:53:59;95829.38;;;11.34;65.44
25080;BME280;13071;48.868;9.996;2023-04-24T11:56:25;95836.50;;;11.42;64.06
25080;BME280;13071;48.868;9.996;2023-04-24T11:58:52;95842.28;;;11.76;65.47
25080;BME280;13071;48.868;9.996;2023-04-24T12:01:20;95844.66;;;11.96;64.52
25080;BME280;13071;48.868;9.996;2023-04-24T12:03:48;95844.00;;;11.84;63.45
25080;BME280;13071;48.868;9.996;2023-04-24T12:06:16;95846.63;;;11.99;64.02
25080;BME280;13071;48.868;9.996;2023-04-24T12:08:46;95846.91;;;11.94;63.21
25080;BME280;13071;48.868;9.996;2023-04-24T12:11:16;95855.13;;;11.79;62.76
25080;BME280;13071;48.868;9.996;2023-04-24T12:13:44;95847.22;;;12.08;63.28
25080;BME280;13071;48.868;9.996;2023-04-24T12:16:11;95846.63;;;11.99;63.72
25080;BME280;13071;48.868;9.996;2023-04-24T12:18:43;95848.56;;;12.18;63.89
25080;BME280;13071;48.868;9.996;2023-04-24T12:21:20;95850.72;;;12.51;63.19
25080;BME280;13071;48.868;9.996;2023-04-24T12:23:49;95843.81;;;12.34;61.94
25080;BME280;13071;48.868;9.996;2023-04-24T12:26:16;95851.63;;;12.59;61.88
25080;BME280;13071;48.868;9.996;2023-04-24T12:28:46;95854.16;;;12.29;61.06
25080;BME280;13071;48.868;9.996;2023-04-24T12:31:13;95864.69;;;12.11;62.37
25080;BME280;13071;48.868;9.996;2023-04-24T12:33:40;95862.84;;;11.96;62.22
25080;BME280;13071;48.868;9.996;2023-04-24T12:36:10;95856.78;;;12.02;62.45
25080;BME280;13071;48.868;9.996;2023-04-24T12:38:37;95861.69;;;11.97;61.75
25080;BME280;13071;48.868;9.996;2023-04-24T12:41:09;95861.91;;;12.27;61.79
25080;BME280;13071;48.868;9.996;2023-04-24T12:43:36;95857.94;;;12.43;60.93
25080;BME280;13071;48.868;9.996;2023-04-24T12:46:03;95864.03;;;12.60;61.52
25080;BME280;13071;48.868;9.996;2023-04-24T12:48:30;95853.78;;;12.49;59.99
25080;BME280;13071;48.868;9.996;2023-04-24T12:50:57;95859.88;;;12.43;60.72
25080;BME280;13071;48.868;9.996;2023-04-24T12:53:26;95860.28;;;12.45;61.93
25080;BME280;13071;48.868;9.996;2023-04-24T12:55:54;95865.31;;;12.43;63.00
25080;BME280;13071;48.868;9.996;2023-04-24T12:58:25;95867.81;;;12.32;61.51
25080;BME280;13071;48.868;9.996;2023-04-24T13:00:51;95867.41;;;11.92;61.83
25080;BME280;13071;48.868;9.996;2023-04-24T13:03:18;95871.22;;;11.72;62.32
25080;BME280;13071;48.868;9.996;2023-04-24T13:05:45;95874.88;;;11.44;64.02
25080;BME280;13071;48.868;9.996;2023-04-24T13:08:12;95883.31;;;11.23;66.62